createdAt,value
2019-03-09T00:01:55.482Z,3.70
2019-03-09T00:04:24.373Z,3.20
2019-03-09T00:06:53.280Z,3.43
2019-03-09T00:09:22.187Z,3.60
2019-03-09T00:11:51.180Z,3.70
2019-03-09T00:14:20.095Z,3.00
2019-03-09T00:16:50.383Z,3.60
2019-03-09T00:19:19.562Z,3.87
2019-03-09T00:21:48.489Z,4.47
2019-03-09T00:24:45.014Z,4.80
2019-03-09T00:27:30.179Z,3.30
2019-03-09T00:30:12.634Z,4.77
2019-03-09T00:32:41.695Z,3.80
2019-03-09T00:35:10.519Z,4.10
2019-03-09T00:37:39.432Z,4.33
2019-03-09T00:40:09.874Z,4.27
2019-03-09T00:42:38.934Z,3.43
2019-03-09T00:45:08.115Z,3.87
2019-03-09T00:47:36.960Z,4.17
2019-03-09T00:50:06.179Z,4.40
2019-03-09T00:52:35.814Z,3.90
2019-03-09T00:55:05.681Z,3.90
2019-03-09T00:57:34.612Z,4.17
2019-03-09T01:00:04.189Z,3.47
2019-03-09T01:02:33.015Z,4.80
2019-03-09T01:05:02.170Z,4.60
2019-03-09T01:07:31.061Z,4.60
2019-03-09T01:10:00.374Z,3.70
2019-03-09T01:12:29.284Z,4.77
2019-03-09T01:14:58.175Z,4.97
2019-03-09T01:17:27.482Z,4.60
2019-03-09T01:19:56.437Z,4.63
2019-03-09T01:22:25.319Z,4.40
2019-03-09T01:24:54.292Z,4.40
2019-03-09T01:27:23.120Z,5.30
2019-03-09T01:29:51.910Z,4.73
2019-03-09T01:32:20.879Z,4.73
2019-03-09T01:34:49.990Z,4.30
2019-03-09T01:37:18.850Z,4.20
2019-03-09T01:39:47.684Z,4.40
2019-03-09T01:42:16.593Z,5.20
2019-03-09T01:44:45.582Z,4.73
2019-03-09T01:47:15.101Z,4.50
2019-03-09T01:49:44.014Z,5.33
2019-03-09T01:52:13.038Z,5.03
2019-03-09T01:54:41.939Z,5.40
2019-03-09T01:57:10.792Z,4.90
2019-03-09T01:59:39.657Z,5.60
2019-03-09T02:02:08.478Z,6.13
2019-03-09T02:04:37.410Z,5.83
2019-03-09T02:07:06.320Z,5.30
2019-03-09T02:09:35.309Z,5.50
2019-03-09T02:12:04.356Z,5.30
2019-03-09T02:14:34.943Z,5.53
2019-03-09T02:17:03.935Z,5.90
2019-03-09T02:19:32.786Z,5.77
2019-03-09T02:22:01.648Z,6.03
2019-03-09T02:24:30.469Z,5.73
2019-03-09T02:26:59.377Z,5.60
2019-03-09T02:29:28.254Z,6.73
2019-03-09T02:31:57.094Z,6.17
2019-03-09T02:34:25.873Z,6.00
2019-03-09T02:36:54.838Z,5.90
2019-03-09T02:39:42.905Z,5.93
2019-03-09T02:42:11.869Z,6.60
2019-03-09T02:44:40.707Z,5.87
2019-03-09T02:47:09.691Z,5.67
2019-03-09T02:49:38.583Z,5.87
2019-03-09T02:52:07.535Z,6.53
2019-03-09T02:54:36.434Z,5.97
2019-03-09T02:57:05.359Z,6.23
2019-03-09T02:59:34.338Z,5.70
2019-03-09T03:02:10.813Z,5.30
2019-03-09T03:04:39.806Z,6.40
2019-03-09T03:07:08.630Z,5.50
2019-03-09T03:09:37.708Z,6.17
2019-03-09T03:12:06.798Z,6.17
2019-03-09T03:14:35.699Z,5.33
2019-03-09T03:17:04.643Z,5.87
2019-03-09T03:19:33.493Z,5.20
2019-03-09T03:22:02.410Z,5.43
2019-03-09T03:24:31.297Z,5.10
2019-03-09T03:27:00.146Z,4.83
2019-03-09T03:29:28.965Z,5.40
2019-03-09T03:31:57.915Z,5.77
2019-03-09T03:34:26.837Z,5.73
2019-03-09T03:36:55.864Z,5.30
2019-03-09T03:39:24.877Z,5.43
2019-03-09T03:41:53.912Z,5.40
2019-03-09T03:44:22.885Z,5.30
2019-03-09T03:46:52.034Z,5.40
2019-03-09T03:49:20.912Z,5.40
2019-03-09T03:51:49.821Z,5.60
2019-03-09T03:54:18.788Z,5.50
2019-03-09T03:56:47.852Z,5.50
2019-03-09T03:59:16.847Z,5.60
2019-03-09T04:01:45.991Z,5.00
2019-03-09T04:04:14.987Z,5.00
2019-03-09T04:06:44.210Z,5.93
2019-03-09T04:09:13.371Z,5.23
2019-03-09T04:11:42.512Z,4.90
2019-03-09T04:14:11.370Z,5.30
2019-03-09T04:16:40.581Z,5.03
2019-03-09T04:19:12.543Z,4.53
2019-03-09T04:21:41.655Z,4.87
2019-03-09T04:24:10.724Z,4.10
2019-03-09T04:26:39.687Z,4.70
2019-03-09T04:29:08.608Z,4.83
2019-03-09T04:31:37.604Z,4.67
2019-03-09T04:34:06.598Z,4.43
2019-03-09T04:36:35.526Z,5.83
2019-03-09T04:39:05.603Z,4.47
2019-03-09T04:41:34.859Z,5.30
2019-03-09T04:44:04.027Z,4.93
2019-03-09T04:46:33.031Z,4.70
2019-03-09T04:49:01.857Z,4.53
2019-03-09T04:51:30.753Z,4.03
2019-03-09T04:53:59.739Z,5.20
2019-03-09T04:56:28.734Z,4.70
2019-03-09T04:58:58.308Z,4.97
2019-03-09T05:01:27.173Z,4.00
2019-03-09T05:04:38.834Z,5.43
2019-03-09T05:07:07.857Z,4.40
2019-03-09T05:10:09.958Z,5.00
2019-03-09T05:12:38.843Z,5.40
2019-03-09T05:15:09.273Z,4.90
2019-03-09T05:17:38.200Z,6.03
2019-03-09T05:20:07.234Z,5.00
2019-03-09T05:22:36.144Z,4.90
2019-03-09T05:25:05.293Z,5.10
2019-03-09T05:27:34.248Z,5.13
2019-03-09T05:30:03.342Z,5.20
2019-03-09T05:32:32.464Z,6.00
2019-03-09T05:35:01.510Z,5.37
2019-03-09T05:37:30.400Z,6.20
2019-03-09T05:39:59.552Z,4.90
2019-03-09T05:42:28.519Z,4.63
2019-03-09T05:44:57.353Z,5.00
2019-03-09T05:47:26.636Z,6.17
2019-03-09T05:49:55.890Z,5.13
2019-03-09T05:52:37.600Z,5.63
2019-03-09T05:55:17.878Z,4.90
2019-03-09T05:57:47.627Z,5.70
2019-03-09T06:00:17.413Z,5.47
2019-03-09T06:02:47.826Z,5.77
2019-03-09T06:05:34.818Z,5.30
2019-03-09T06:08:04.030Z,6.40
2019-03-09T06:10:33.073Z,5.80
2019-03-09T06:13:02.300Z,6.03
2019-03-09T06:15:31.778Z,6.37
2019-03-09T06:18:01.230Z,6.03
2019-03-09T06:20:30.600Z,6.20
2019-03-09T06:23:02.694Z,5.40
2019-03-09T06:25:31.698Z,5.57
2019-03-09T06:28:00.790Z,6.53
2019-03-09T06:30:30.094Z,6.70
2019-03-09T06:33:35.941Z,6.50
2019-03-09T06:36:34.552Z,6.07
2019-03-09T06:39:15.889Z,5.90
2019-03-09T06:42:07.318Z,5.70
2019-03-09T06:44:36.432Z,6.40
2019-03-09T06:47:05.542Z,5.27
2019-03-09T06:49:37.500Z,5.30
2019-03-09T06:52:06.538Z,6.10
2019-03-09T06:54:35.689Z,6.30
2019-03-09T06:57:13.476Z,5.70
2019-03-09T06:59:37.462Z,5.87
2019-03-09T07:02:07.087Z,6.23
2019-03-09T07:04:36.258Z,6.03
2019-03-09T07:07:05.146Z,5.70
2019-03-09T07:09:34.023Z,5.43
2019-03-09T07:12:03.821Z,6.27
2019-03-09T07:15:19.862Z,5.50
2019-03-09T07:17:51.471Z,5.83
2019-03-09T07:20:20.487Z,5.27
2019-03-09T07:22:50.118Z,5.47
2019-03-09T07:25:19.087Z,4.60
2019-03-09T07:28:02.225Z,4.43
2019-03-09T07:30:31.420Z,3.80
2019-03-09T07:33:00.400Z,4.80
2019-03-09T07:35:29.541Z,4.43
2019-03-09T07:38:01.573Z,4.73
2019-03-09T07:40:30.810Z,4.40
2019-03-09T07:42:59.759Z,4.70
2019-03-09T07:45:28.802Z,3.63
2019-03-09T07:47:57.621Z,3.40
2019-03-09T07:50:26.641Z,4.03
2019-03-09T07:52:55.489Z,3.87
2019-03-09T07:55:24.535Z,2.50
2019-03-09T07:57:58.759Z,2.80
2019-03-09T08:00:27.882Z,2.90
2019-03-09T08:02:56.542Z,2.67
2019-03-09T08:05:25.820Z,2.60
2019-03-09T08:07:54.905Z,2.67
2019-03-09T08:10:23.387Z,2.70
2019-03-09T08:12:52.409Z,2.17
2019-03-09T08:15:20.872Z,2.30
2019-03-09T08:17:49.547Z,1.77
2019-03-09T08:20:18.364Z,1.97
2019-03-09T08:22:47.447Z,2.00
2019-03-09T08:25:16.626Z,1.37
2019-03-09T08:27:45.847Z,2.10
2019-03-09T08:30:16.674Z,2.20
2019-03-09T08:32:46.472Z,2.23
2019-03-09T08:35:16.961Z,2.60
2019-03-09T08:37:46.019Z,2.70
2019-03-09T08:40:15.289Z,2.20
2019-03-09T08:42:44.541Z,2.57
2019-03-09T08:45:15.031Z,3.20
2019-03-09T08:47:51.525Z,2.43
2019-03-09T08:50:19.670Z,2.40
2019-03-09T08:52:48.933Z,2.77
2019-03-09T08:55:18.414Z,3.03
2019-03-09T08:57:48.248Z,2.97
2019-03-09T09:00:26.463Z,1.80
2019-03-09T09:02:55.583Z,2.10
2019-03-09T09:05:24.158Z,1.90
2019-03-09T09:07:53.185Z,1.63
2019-03-09T09:10:22.244Z,1.57
2019-03-09T09:12:51.339Z,2.00
2019-03-09T09:15:19.785Z,1.30
2019-03-09T09:17:48.738Z,1.33
2019-03-09T09:20:19.284Z,1.60
2019-03-09T09:22:48.313Z,1.60
2019-03-09T09:25:17.403Z,1.30
2019-03-09T09:27:46.695Z,2.00
2019-03-09T09:30:18.082Z,1.50
2019-03-09T09:32:47.403Z,1.20
2019-03-09T09:35:16.778Z,1.33
2019-03-09T09:37:45.827Z,1.90
2019-03-09T09:40:17.626Z,2.27
2019-03-09T09:42:46.681Z,2.07
2019-03-09T09:45:16.005Z,1.70
2019-03-09T09:47:44.906Z,1.50
2019-03-09T09:50:14.294Z,1.57
2019-03-09T09:52:43.221Z,1.87
2019-03-09T09:55:13.231Z,1.40
2019-03-09T09:57:42.129Z,1.63
2019-03-09T10:00:16.959Z,1.30
2019-03-09T10:02:45.991Z,1.33
2019-03-09T10:05:15.208Z,1.47
2019-03-09T10:07:44.285Z,1.07
2019-03-09T10:10:14.712Z,2.20
2019-03-09T10:12:43.803Z,1.73
2019-03-09T10:15:15.125Z,1.40
2019-03-09T10:17:44.028Z,1.67
2019-03-09T10:20:13.247Z,1.70
2019-03-09T10:22:42.288Z,1.90
2019-03-09T10:25:11.473Z,1.87
2019-03-09T10:27:40.807Z,1.03
2019-03-09T10:30:11.689Z,1.97
2019-03-09T10:32:40.562Z,1.60
2019-03-09T10:35:09.471Z,1.53
2019-03-09T10:37:38.382Z,1.33
2019-03-09T10:40:07.583Z,1.50
2019-03-09T10:42:36.454Z,1.40
2019-03-09T10:45:06.341Z,1.20
2019-03-09T10:47:35.290Z,1.77
2019-03-09T10:50:04.718Z,1.60
2019-03-09T10:52:34.085Z,1.57
2019-03-09T10:55:03.140Z,1.87
2019-03-09T10:57:32.150Z,1.43
2019-03-09T11:00:01.104Z,1.53
2019-03-09T11:02:29.923Z,1.57
2019-03-09T11:04:58.999Z,1.73
2019-03-09T11:07:27.846Z,1.50
2019-03-09T11:09:56.974Z,1.90
2019-03-09T11:12:25.970Z,1.67
2019-03-09T11:14:54.893Z,1.60
2019-03-09T11:17:23.846Z,1.40
2019-03-09T11:19:52.913Z,1.50
2019-03-09T11:22:21.783Z,1.40
2019-03-09T11:24:50.648Z,1.43
2019-03-09T11:27:19.514Z,1.60
2019-03-09T11:29:48.498Z,1.97
2019-03-09T11:32:17.398Z,1.37
2019-03-09T11:34:46.599Z,1.57
2019-03-09T11:37:15.636Z,1.77
2019-03-09T11:39:44.747Z,1.63
2019-03-09T11:42:13.690Z,1.53
2019-03-09T11:44:42.609Z,1.70
2019-03-09T11:47:11.637Z,1.50
2019-03-09T11:49:40.596Z,2.00
2019-03-09T11:52:19.562Z,1.83
2019-03-09T11:54:40.091Z,1.60
2019-03-09T11:57:09.104Z,1.50
2019-03-09T11:59:38.111Z,1.80
2019-03-09T12:02:07.006Z,1.80
2019-03-09T12:04:46.092Z,1.60
2019-03-09T12:07:06.384Z,1.70
2019-03-09T12:09:35.200Z,1.67
2019-03-09T12:12:04.730Z,1.87
2019-03-09T12:14:33.788Z,1.83
2019-03-09T12:17:02.815Z,2.27
2019-03-09T12:19:31.987Z,2.10
2019-03-09T12:22:00.927Z,2.27
2019-03-09T12:24:29.966Z,1.80
2019-03-09T12:26:58.995Z,1.80
2019-03-09T12:29:27.874Z,1.80
2019-03-09T12:31:56.972Z,2.10
2019-03-09T12:34:26.134Z,1.80
2019-03-09T12:36:55.210Z,2.23
2019-03-09T12:39:24.161Z,2.07
2019-03-09T12:41:53.211Z,1.60
2019-03-09T12:44:22.255Z,1.80
2019-03-09T12:46:51.140Z,2.17
2019-03-09T12:49:20.032Z,1.83
2019-03-09T12:51:49.185Z,1.67
2019-03-09T12:54:18.073Z,2.03
2019-03-09T12:56:51.713Z,1.87
2019-03-09T12:59:21.185Z,1.50
2019-03-09T13:01:50.340Z,2.20
2019-03-09T13:04:19.187Z,2.53
2019-03-09T13:06:48.235Z,2.23
2019-03-09T13:09:17.305Z,2.30
2019-03-09T13:11:46.165Z,2.20
2019-03-09T13:14:15.197Z,2.00
2019-03-09T13:16:44.224Z,2.40
2019-03-09T13:19:13.165Z,2.23
2019-03-09T13:21:42.375Z,2.20
2019-03-09T13:24:11.241Z,2.00
2019-03-09T13:26:40.287Z,1.73
2019-03-09T13:29:09.287Z,2.50
2019-03-09T13:31:38.467Z,3.00
2019-03-09T13:34:07.505Z,2.23
2019-03-09T13:36:36.459Z,2.60
2019-03-09T13:39:07.399Z,2.30
2019-03-09T13:41:36.538Z,2.23
2019-03-09T13:44:05.891Z,2.27
2019-03-09T13:46:34.839Z,2.27
2019-03-09T13:49:03.843Z,2.20
2019-03-09T13:51:32.993Z,2.50
2019-03-09T13:54:01.917Z,2.57
2019-03-09T13:56:30.825Z,2.50
2019-03-09T13:58:59.881Z,2.77
2019-03-09T14:01:28.925Z,3.17
2019-03-09T14:03:57.979Z,2.73
2019-03-09T14:06:27.164Z,2.80
2019-03-09T14:08:56.128Z,3.23
2019-03-09T14:11:25.103Z,3.20
2019-03-09T14:13:54.104Z,3.20
2019-03-09T14:16:23.209Z,3.30
2019-03-09T14:18:52.124Z,3.93
2019-03-09T14:21:21.217Z,4.27
2019-03-09T14:23:50.362Z,4.43
2019-03-09T14:26:19.300Z,4.97
2019-03-09T14:28:48.246Z,5.30
2019-03-09T14:31:17.320Z,5.30
2019-03-09T14:33:46.344Z,6.17
2019-03-09T14:36:15.522Z,6.50
2019-03-09T14:38:44.492Z,5.50
2019-03-09T14:41:13.580Z,5.13
2019-03-09T14:43:42.516Z,5.40
2019-03-09T14:46:11.596Z,5.33
2019-03-09T14:48:40.434Z,5.80
2019-03-09T14:51:09.415Z,5.27
2019-03-09T14:53:38.430Z,5.20
2019-03-09T14:56:07.358Z,4.77
2019-03-09T14:58:36.258Z,5.30
2019-03-09T15:01:05.211Z,5.03
2019-03-09T15:06:10.552Z,4.97
2019-03-09T15:11:13.657Z,4.13
2019-03-09T15:14:01.360Z,4.00
2019-03-09T15:16:49.442Z,3.70
2019-03-09T15:19:18.336Z,3.67
2019-03-09T15:21:47.274Z,4.50
2019-03-09T15:24:16.184Z,4.13
2019-03-09T15:27:05.862Z,4.10
2019-03-09T15:29:34.862Z,4.90
2019-03-09T15:32:03.726Z,3.43
2019-03-09T15:34:32.822Z,3.77
2019-03-09T15:37:01.851Z,4.07
2019-03-09T15:39:31.018Z,3.77
2019-03-09T15:41:59.904Z,3.60
2019-03-09T15:44:28.960Z,4.20
2019-03-09T15:46:57.896Z,4.00
2019-03-09T15:49:27.218Z,3.40
2019-03-09T15:51:56.358Z,4.03
2019-03-09T15:54:25.200Z,3.13
2019-03-09T15:57:13.352Z,2.97
2019-03-09T16:00:01.474Z,3.20
2019-03-09T16:02:49.634Z,3.30
2019-03-09T16:05:37.985Z,2.43
2019-03-09T16:08:26.160Z,2.30
2019-03-09T16:11:14.364Z,1.60
2019-03-09T16:14:02.583Z,1.47
2019-03-09T16:16:50.994Z,1.37
2019-03-09T16:19:59.806Z,1.17
2019-03-09T16:22:47.429Z,1.87
2019-03-09T16:25:35.231Z,2.80
2019-03-09T16:28:23.424Z,2.93
2019-03-09T16:31:11.568Z,2.37
2019-03-09T16:33:59.313Z,2.20
2019-03-09T16:36:47.139Z,2.20
2019-03-09T16:39:34.951Z,2.23
2019-03-09T16:42:23.491Z,2.10
2019-03-09T16:45:12.376Z,2.10
2019-03-09T16:47:53.449Z,2.10
2019-03-09T16:50:35.012Z,3.33
2019-03-09T16:53:16.308Z,4.87
2019-03-09T16:55:45.261Z,2.53
2019-03-09T16:58:32.922Z,1.73
2019-03-09T17:01:20.566Z,1.70
2019-03-09T17:04:08.593Z,1.80
2019-03-09T17:06:56.780Z,1.77
2019-03-09T17:09:44.803Z,2.90
2019-03-09T17:12:32.443Z,2.10
2019-03-09T17:15:20.640Z,2.20
2019-03-09T17:18:08.768Z,2.53
2019-03-09T17:20:56.883Z,3.27
2019-03-09T17:23:44.581Z,2.13
2019-03-09T17:26:32.221Z,2.97
2019-03-09T17:29:20.059Z,2.63
2019-03-09T17:32:07.671Z,2.93
2019-03-09T17:34:55.717Z,3.60
2019-03-09T17:37:43.812Z,2.93
2019-03-09T17:40:31.977Z,3.00
2019-03-09T17:43:19.771Z,3.50
2019-03-09T17:46:07.674Z,2.83
2019-03-09T17:51:34.287Z,2.90
2019-03-09T17:54:02.899Z,3.60
2019-03-09T17:56:50.526Z,3.73
2019-03-09T17:59:19.053Z,3.40
2019-03-09T18:01:47.589Z,3.37
2019-03-09T18:04:16.055Z,3.90
2019-03-09T18:06:44.491Z,2.80
2019-03-09T18:09:13.087Z,2.70
2019-03-09T18:12:00.763Z,2.90
2019-03-09T18:14:48.603Z,2.93
2019-03-09T18:17:36.233Z,3.70
2019-03-09T18:20:23.901Z,4.33
2019-03-09T18:23:11.659Z,3.70
2019-03-09T18:25:59.346Z,3.30
2019-03-09T18:28:47.072Z,4.17
2019-03-09T18:31:35.011Z,4.17
2019-03-09T18:34:23.013Z,3.53
2019-03-09T18:37:10.676Z,4.27
2019-03-09T18:39:58.305Z,3.70
2019-03-09T18:42:46.125Z,3.80
2019-03-09T18:54:36.632Z,4.30
2019-03-09T18:57:18.376Z,4.63
2019-03-09T18:59:59.338Z,4.50
2019-03-09T19:02:39.991Z,5.40
2019-03-09T19:05:21.267Z,4.47
2019-03-09T19:08:02.313Z,5.00
2019-03-09T19:10:43.420Z,4.80
2019-03-09T19:13:24.719Z,5.70
2019-03-09T19:16:06.022Z,4.27
2019-03-09T19:18:46.657Z,5.30
2019-03-09T19:21:27.034Z,4.07
2019-03-09T19:24:08.120Z,4.37
2019-03-09T19:29:31.264Z,4.53
2019-03-09T19:32:12.396Z,4.90
2019-03-09T19:34:53.101Z,4.13
2019-03-09T19:37:33.970Z,4.23
2019-03-09T19:40:14.812Z,4.47
2019-03-09T19:42:55.302Z,4.67
2019-03-09T19:45:35.948Z,4.70
2019-03-09T19:48:16.358Z,4.63
2019-03-09T19:50:56.964Z,5.87
2019-03-09T19:53:37.818Z,5.60
2019-03-09T19:59:17.076Z,6.30
2019-03-09T20:01:57.620Z,6.50
2019-03-09T20:34:32.745Z,2.30
2019-03-09T20:37:12.987Z,2.27
2019-03-09T20:39:53.088Z,2.03
2019-03-09T20:42:33.326Z,1.90
2019-03-09T20:45:14.877Z,1.70
2019-03-09T20:47:55.548Z,1.60
2019-03-09T20:50:33.950Z,1.63
2019-03-09T20:59:14.942Z,1.60
2019-03-09T21:14:09.431Z,1.40
2019-03-09T21:22:47.104Z,1.77
2019-03-09T21:28:40.965Z,2.00
2019-03-09T22:38:01.813Z,1.77
2019-03-09T22:40:30.343Z,1.50
2019-03-09T22:43:17.959Z,1.93
2019-03-09T22:46:05.969Z,1.33
2019-03-09T22:48:53.651Z,1.40
2019-03-09T22:57:19.619Z,1.03
2019-03-09T23:00:07.621Z,1.60
2019-03-09T23:02:39.233Z,1.40
2019-03-09T23:05:08.173Z,1.63
2019-03-09T23:07:36.705Z,1.60
2019-03-09T23:10:05.855Z,1.20
2019-03-09T23:12:34.451Z,1.60
2019-03-09T23:15:04.935Z,1.70
2019-03-09T23:17:35.403Z,2.00
2019-03-09T23:20:03.827Z,1.17
2019-03-09T23:22:51.723Z,1.57
2019-03-09T23:25:39.657Z,2.17
2019-03-09T23:28:27.328Z,1.73
2019-03-09T23:31:15.037Z,1.20
2019-03-09T23:34:03.161Z,1.40
